Time,TemperatureF,DewpointF,PressureIn,WindDirection,WindDirectionDegrees,WindSpeedMPH,WindSpeedGustMPH,Humidity,HourlyPrecipIn,Conditions,Clouds,dailyrainin,SoftwareType,DateUTC
2013-03-24 00:00:00,76.8,69.1,29.53,South,180,0.0,0.0,77,0.00,,---,0.02,VWS V13.01,2013-03-24 04:00:00,
2013-03-24 00:05:00,76.8,69.1,29.53,South,180,15.0,15.2,77,0.00,,---,0.02,VWS V13.01,2013-03-24 04:05:00,
2013-03-24 00:10:00,77.0,69.2,29.53,South,180,0.0,15.0,77,0.00,,---,0.02,VWS V13.01,2013-03-24 04:10:00,
2013-03-24 00:15:00,76.8,69.1,29.53,South,180,0.9,0.9,77,0.00,,---,0.02,VWS V13.01,2013-03-24 04:15:00,
2013-03-24 00:25:00,77.0,69.2,29.53,South,180,0.0,0.9,77,0.00,,---,0.02,VWS V13.01,2013-03-24 04:25:00,
2013-03-24 00:35:00,76.8,69.1,29.52,SSE,158,14.1,14.1,77,0.00,,---,0.02,VWS V13.01,2013-03-24 04:35:00,
2013-03-24 00:45:00,76.8,69.1,29.52,SSE,158,0.0,0.0,77,0.00,,---,0.02,VWS V13.01,2013-03-24 04:45:00,
2013-03-24 00:55:00,76.8,69.1,29.52,SSE,158,1.3,1.3,77,0.00,,---,0.02,VWS V13.01,2013-03-24 04:55:00,
2013-03-24 01:00:00,76.8,69.1,29.52,SE,135,1.3,1.3,77,0.00,,---,0.02,VWS V13.01,2013-03-24 05:00:00,
2013-03-24 01:10:00,76.8,69.1,29.52,SSE,158,2.0,5.1,77,0.00,,---,0.02,VWS V13.01,2013-03-24 05:10:00,
2013-03-24 01:20:00,76.8,69.1,29.51,SSE,158,3.1,3.1,77,0.00,,---,0.02,VWS V13.01,2013-03-24 05:20:00,
2013-03-24 01:30:00,76.6,69.3,29.51,South,180,2.7,2.7,78,0.00,,---,0.02,VWS V13.01,2013-03-24 05:30:00,
2013-03-24 01:35:00,76.6,69.3,29.51,South,180,5.4,5.4,78,0.00,,---,0.02,VWS V13.01,2013-03-24 05:35:00,
2013-03-24 01:40:00,76.6,69.3,29.50,South,180,5.4,5.4,78,0.00,,---,0.02,VWS V13.01,2013-03-24 05:40:00,
2013-03-24 01:50:00,76.6,69.3,29.50,South,180,3.6,6.0,78,0.00,,---,0.02,VWS V13.01,2013-03-24 05:50:00,
2013-03-24 02:00:00,76.6,69.6,29.50,South,180,3.1,6.5,79,0.00,,---,0.02,VWS V13.01,2013-03-24 06:00:00,
2013-03-24 02:10:00,76.5,69.5,29.50,SSW,202,7.6,7.6,79,0.00,,---,0.02,VWS V13.01,2013-03-24 06:10:00,
2013-03-24 02:20:00,76.5,69.5,29.49,ENE,68,0.7,0.7,79,0.00,,---,0.02,VWS V13.01,2013-03-24 06:20:00,
2013-03-24 02:30:00,76.5,69.8,29.49,SSE,158,3.1,3.8,80,0.00,,---,0.02,VWS V13.01,2013-03-24 06:30:00,
2013-03-24 02:40:00,76.3,69.7,29.49,SW,225,7.8,7.8,80,0.00,,---,0.02,VWS V13.01,2013-03-24 06:40:00,
2013-03-24 02:50:00,76.3,69.7,29.48,SSE,158,5.6,6.0,80,0.00,,---,0.02,VWS V13.01,2013-03-24 06:50:00,
2013-03-24 02:55:00,76.3,69.7,29.48,South,180,8.1,8.1,80,0.00,,---,0.02,VWS V13.01,2013-03-24 06:55:00,
2013-03-24 03:05:00,76.3,69.7,29.48,SSE,158,4.7,8.5,80,0.00,,---,0.00,VWS V13.01,2013-03-24 07:05:00,
2013-03-24 03:10:00,76.3,69.7,29.47,South,180,2.9,4.7,80,0.00,,---,0.00,VWS V13.01,2013-03-24 07:10:00,
2013-03-24 03:20:00,76.3,69.7,29.47,SSW,202,6.9,7.2,80,0.00,,---,0.00,VWS V13.01,2013-03-24 07:20:00,
2013-03-24 03:25:00,76.3,69.7,29.47,SE,135,6.3,6.9,80,0.00,,---,0.00,VWS V13.01,2013-03-24 07:25:00,
2013-03-24 03:35:00,76.1,69.5,29.46,SSE,158,8.7,8.7,80,0.00,,---,0.00,VWS V13.01,2013-03-24 07:35:00,
2013-03-24 03:45:00,76.1,69.5,29.46,South,180,3.6,5.4,80,0.00,,---,0.00,VWS V13.01,2013-03-24 07:45:00,
2013-03-24 03:50:00,76.1,69.5,29.45,South,180,3.6,3.6,80,0.00,,---,0.00,VWS V13.01,2013-03-24 07:50:00,
2013-03-24 04:00:00,76.1,69.5,29.45,South,180,2.5,2.5,80,0.00,,---,0.00,VWS V13.01,2013-03-24 08:00:00,
2013-03-24 04:05:00,76.1,69.5,29.45,South,180,2.5,2.5,80,0.00,,---,0.00,VWS V13.01,2013-03-24 08:05:00,
2013-03-24 04:10:00,76.1,69.5,29.45,SSW,202,7.6,7.6,80,0.00,,---,0.00,VWS V13.01,2013-03-24 08:10:00,
2013-03-24 04:20:00,75.9,69.3,29.45,SSW,202,7.6,7.6,80,0.00,,---,0.00,VWS V13.01,2013-03-24 08:20:00,
2013-03-24 04:25:00,75.9,69.3,29.45,South,180,5.6,7.6,80,0.00,,---,0.00,VWS V13.01,2013-03-24 08:25:00,
2013-03-24 04:35:00,75.9,69.3,29.45,South,180,5.6,5.6,80,0.00,,---,0.00,VWS V13.01,2013-03-24 08:35:00,
2013-03-24 04:40:00,75.9,69.3,29.45,SE,135,5.6,6.9,80,0.00,,---,0.00,VWS V13.01,2013-03-24 08:40:00,
2013-03-24 04:50:00,75.9,69.3,29.45,South,180,8.3,8.3,80,0.00,,---,0.00,VWS V13.01,2013-03-24 08:50:00,
2013-03-24 04:55:00,75.9,69.3,29.45,South,180,8.3,8.3,80,0.00,,---,0.00,VWS V13.01,2013-03-24 08:55:00,
2013-03-24 05:00:00,75.7,69.1,29.45,SSW,202,5.8,8.3,80,0.00,,---,0.00,VWS V13.01,2013-03-24 09:00:00,
2013-03-24 05:10:00,75.7,69.1,29.45,South,180,5.6,5.6,80,0.00,,---,0.00,VWS V13.01,2013-03-24 09:10:00,
2013-03-24 05:15:00,75.7,69.1,29.44,South,180,5.8,6.9,80,0.00,,---,0.00,VWS V13.01,2013-03-24 09:15:00,
2013-03-24 05:25:00,75.7,69.1,29.44,SSE,158,8.5,8.5,80,0.00,,---,0.00,VWS V13.01,2013-03-24 09:25:00,
2013-03-24 05:35:00,75.7,69.1,29.44,South,180,8.3,8.3,80,0.00,,---,0.00,VWS V13.01,2013-03-24 09:35:00,
2013-03-24 05:40:00,75.6,69.0,29.44,SSE,158,6.3,8.3,80,0.00,,---,0.00,VWS V13.01,2013-03-24 09:40:00,
2013-03-24 05:50:00,75.6,69.3,29.43,South,180,2.9,7.8,81,0.00,,---,0.00,VWS V13.01,2013-03-24 09:50:00,
2013-03-24 06:00:00,75.6,69.3,29.43,SSW,202,5.6,5.6,81,0.00,,---,0.00,VWS V13.01,2013-03-24 10:00:00,
2013-03-24 06:10:00,75.4,69.2,29.43,SSW,202,5.6,7.2,81,0.00,,---,0.00,VWS V13.01,2013-03-24 10:10:00,
2013-03-24 06:15:00,75.4,69.2,29.43,SSE,158,5.8,5.8,81,0.00,,---,0.00,VWS V13.01,2013-03-24 10:15:00,
2013-03-24 06:20:00,75.4,69.2,29.44,SSE,158,5.8,5.8,81,0.00,,---,0.00,VWS V13.01,2013-03-24 10:20:00,
2013-03-24 06:30:00,75.4,69.2,29.44,SSE,158,6.5,6.5,81,0.00,,---,0.00,VWS V13.01,2013-03-24 10:30:00,
2013-03-24 06:35:00,75.4,69.2,29.43,South,180,3.8,6.5,81,0.00,,---,0.00,VWS V13.01,2013-03-24 10:35:00,
2013-03-24 06:45:00,75.4,69.2,29.43,SSW,202,6.9,10.3,81,0.00,,---,0.00,VWS V13.01,2013-03-24 10:45:00,
2013-03-24 06:55:00,75.4,69.2,29.43,SSW,202,8.3,8.3,81,0.00,,---,0.00,VWS V13.01,2013-03-24 10:55:00,
2013-03-24 07:00:00,75.4,69.2,29.42,South,180,7.4,8.3,81,0.00,,---,0.00,VWS V13.01,2013-03-24 11:00:00,
2013-03-24 07:10:00,75.0,68.8,29.42,SSE,158,4.0,7.8,81,0.00,,---,0.00,VWS V13.01,2013-03-24 11:10:00,
2013-03-24 07:20:00,75.0,68.8,29.42,SSE,158,5.4,7.4,81,0.00,,---,0.00,VWS V13.01,2013-03-24 11:20:00,
2013-03-24 07:25:00,75.0,68.8,29.42,SSW,202,8.7,8.7,81,0.00,,---,0.00,VWS V13.01,2013-03-24 11:25:00,
2013-03-24 07:35:00,75.0,68.4,29.42,South,180,8.5,8.5,80,0.00,,---,0.00,VWS V13.01,2013-03-24 11:35:00,
2013-03-24 07:45:00,75.0,68.4,29.42,SSW,202,4.9,7.2,80,0.00,,---,0.00,VWS V13.01,2013-03-24 11:45:00,
2013-03-24 07:50:00,75.0,68.4,29.42,SSW,202,4.3,5.8,80,0.00,,---,0.00,VWS V13.01,2013-03-24 11:50:00,
2013-03-24 08:00:00,75.4,68.8,29.42,WSW,248,6.5,7.8,80,0.00,,---,0.00,VWS V13.01,2013-03-24 12:00:00,
2013-03-24 08:10:00,75.7,69.1,29.41,SSW,202,13.2,13.2,80,0.00,,---,0.00,VWS V13.01,2013-03-24 12:10:00,
2013-03-24 08:20:00,76.1,69.1,29.41,South,180,11.0,11.0,79,0.00,,---,0.00,VWS V13.01,2013-03-24 12:20:00,
2013-03-24 08:30:00,76.6,69.6,29.42,South,180,3.1,6.9,79,0.00,,---,0.00,VWS V13.01,2013-03-24 12:30:00,
2013-03-24 08:35:00,76.8,69.4,29.42,SSW,202,11.6,11.6,78,0.00,,---,0.00,VWS V13.01,2013-03-24 12:35:00,
2013-03-24 08:40:00,77.2,69.4,29.42,South,180,12.8,12.8,77,0.00,,---,0.00,VWS V13.01,2013-03-24 12:40:00,
2013-03-24 08:50:00,77.5,69.8,29.41,WSW,248,9.8,15.7,77,0.00,,---,0.00,VWS V13.01,2013-03-24 12:50:00,
2013-03-24 08:55:00,77.5,69.8,29.41,WSW,248,5.1,9.8,77,0.00,,---,0.00,VWS V13.01,2013-03-24 12:55:00,
2013-03-24 09:05:00,78.4,70.2,29.41,SSW,202,4.0,5.4,76,0.00,,---,0.00,VWS V13.01,2013-03-24 13:05:00,
2013-03-24 09:10:00,78.6,70.0,29.41,SSW,202,15.7,15.7,75,0.00,,---,0.00,VWS V13.01,2013-03-24 13:10:00,
2013-03-24 09:20:00,78.6,70.0,29.40,SSW,202,21.7,21.7,75,0.00,,---,0.00,VWS V13.01,2013-03-24 13:20:00,
2013-03-24 09:30:00,79.5,70.5,29.41,SSE,158,4.9,11.9,74,0.00,,---,0.00,VWS V13.01,2013-03-24 13:30:00,
2013-03-24 09:40:00,80.2,70.8,29.41,SSW,202,10.5,11.0,73,0.00,,---,0.00,VWS V13.01,2013-03-24 13:40:00,
2013-03-24 09:45:00,80.4,70.6,29.41,South,180,11.6,12.8,72,0.00,,---,0.00,VWS V13.01,2013-03-24 13:45:00,
2013-03-24 09:50:00,80.4,70.6,29.41,South,180,11.6,11.6,72,0.00,,---,0.00,VWS V13.01,2013-03-24 13:50:00,
2013-03-24 10:00:00,81.3,71.0,29.40,WSW,248,12.5,13.0,71,0.00,,---,0.00,VWS V13.01,2013-03-24 14:00:00,
2013-03-24 10:05:00,81.3,71.0,29.41,WSW,248,12.5,12.5,71,0.00,,---,0.00,VWS V13.01,2013-03-24 14:05:00,
2013-03-24 10:15:00,81.7,70.5,29.41,WSW,248,5.1,13.4,69,0.00,,---,0.00,VWS V13.01,2013-03-24 14:15:00,
2013-03-24 10:25:00,81.5,70.4,29.41,SSW,202,13.9,16.6,69,0.00,,---,0.00,VWS V13.01,2013-03-24 14:25:00,
2013-03-24 10:35:00,81.7,70.5,29.41,WSW,248,12.3,12.3,69,0.00,,---,0.00,VWS V13.01,2013-03-24 14:35:00,
2013-03-24 10:45:00,82.2,70.6,29.41,SW,225,7.4,7.4,68,0.00,,---,0.00,VWS V13.01,2013-03-24 14:45:00,
2013-03-24 10:50:00,82.2,70.6,29.41,SW,225,7.4,7.4,68,0.00,,---,0.00,VWS V13.01,2013-03-24 14:50:00,
2013-03-24 10:55:00,83.8,71.3,29.42,SW,225,7.6,16.1,66,0.00,,---,0.00,VWS V13.01,2013-03-24 14:55:00,
2013-03-24 11:05:00,83.1,70.1,29.41,WSW,248,12.3,12.3,65,0.00,,---,0.00,VWS V13.01,2013-03-24 15:05:00,
2013-03-24 11:10:00,83.1,70.6,29.42,SSW,202,11.2,12.3,66,0.00,,---,0.00,VWS V13.01,2013-03-24 15:10:00,
2013-03-24 11:15:00,82.8,70.2,29.41,SW,225,17.2,17.2,66,0.00,,---,0.00,VWS V13.01,2013-03-24 15:15:00,
2013-03-24 11:25:00,83.3,70.3,29.42,SW,225,11.4,13.0,65,0.00,,---,0.00,VWS V13.01,2013-03-24 15:25:00,
2013-03-24 11:35:00,84.0,71.0,29.42,WSW,248,11.2,11.9,65,0.00,,---,0.00,VWS V13.01,2013-03-24 15:35:00,
2013-03-24 11:40:00,83.8,70.4,29.41,West,270,11.4,22.8,64,0.00,,---,0.00,VWS V13.01,2013-03-24 15:40:00,
2013-03-24 11:50:00,84.0,70.1,29.42,WSW,248,13.2,13.6,63,0.00,,---,0.00,VWS V13.01,2013-03-24 15:50:00,
2013-03-24 12:00:00,84.9,70.5,29.41,WSW,248,6.9,8.3,62,0.00,,---,0.00,VWS V13.01,2013-03-24 16:00:00,
2013-03-24 12:10:00,85.8,70.8,29.41,WSW,248,8.7,16.3,61,0.00,,---,0.00,VWS V13.01,2013-03-24 16:10:00,
2013-03-24 12:20:00,86.7,71.2,29.41,SW,225,15.9,15.9,60,0.00,,---,0.00,VWS V13.01,2013-03-24 16:20:00,
2013-03-24 12:30:00,86.4,70.8,29.41,WSW,248,11.6,15.0,60,0.00,,---,0.00,VWS V13.01,2013-03-24 16:30:00,
2013-03-24 12:40:00,87.6,71.0,29.40,SW,225,8.1,12.5,58,0.00,,---,0.00,VWS V13.01,2013-03-24 16:40:00,
2013-03-24 12:45:00,88.0,71.4,29.40,SW,225,8.1,8.1,58,0.00,,---,0.00,VWS V13.01,2013-03-24 16:45:00,
2013-03-24 12:50:00,88.3,71.7,29.40,South,180,17.9,17.9,58,0.00,,---,0.00,VWS V13.01,2013-03-24 16:50:00,
2013-03-24 13:00:00,88.5,71.3,29.39,West,270,11.4,14.5,57,0.00,,---,0.00,VWS V13.01,2013-03-24 17:00:00,
2013-03-24 13:10:00,89.1,71.9,29.39,WSW,248,12.8,12.8,57,0.00,,---,0.00,VWS V13.01,2013-03-24 17:10:00,
2013-03-24 13:20:00,89.1,71.3,29.39,WSW,248,8.3,10.1,56,0.00,,---,0.00,VWS V13.01,2013-03-24 17:20:00,
2013-03-24 13:30:00,88.9,70.6,29.39,SW,225,8.5,8.5,55,0.00,,---,0.00,VWS V13.01,2013-03-24 17:30:00,
2013-03-24 13:40:00,88.0,70.8,29.38,SW,225,9.0,9.0,57,0.00,,---,0.00,VWS V13.01,2013-03-24 17:40:00,
2013-03-24 13:45:00,88.0,70.8,29.39,WSW,248,11.0,11.0,57,0.00,,---,0.00,VWS V13.01,2013-03-24 17:45:00,
2013-03-24 13:55:00,88.9,71.7,29.39,WSW,248,18.6,18.6,57,0.00,,---,0.00,VWS V13.01,2013-03-24 17:55:00,
2013-03-24 14:00:00,88.7,70.5,29.39,West,270,18.6,18.6,55,0.00,,---,0.00,VWS V13.01,2013-03-24 18:00:00,
2013-03-24 14:10:00,88.3,70.1,29.38,WSW,248,6.5,22.2,55,0.00,,---,0.00,VWS V13.01,2013-03-24 18:10:00,
2013-03-24 14:20:00,88.2,71.0,29.38,WSW,248,16.8,20.8,57,0.00,,---,0.00,VWS V13.01,2013-03-24 18:20:00,
2013-03-24 14:25:00,88.2,71.0,29.38,WSW,248,16.8,16.8,57,0.00,,---,0.00,VWS V13.01,2013-03-24 18:25:00,
2013-03-24 14:35:00,89.6,71.8,29.37,West,270,9.2,18.1,56,0.00,,---,0.00,VWS V13.01,2013-03-24 18:35:00,
2013-03-24 14:40:00,90.1,71.3,29.37,SSW,202,6.9,9.2,54,0.00,,---,0.00,VWS V13.01,2013-03-24 18:40:00,
2013-03-24 14:50:00,90.9,71.4,29.36,WSW,248,22.4,22.4,53,0.00,,---,0.00,VWS V13.01,2013-03-24 18:50:00,
2013-03-24 14:55:00,90.9,71.4,29.36,WSW,248,13.9,22.4,53,0.00,,---,0.00,VWS V13.01,2013-03-24 18:55:00,
2013-03-24 15:00:00,91.2,71.7,29.36,WSW,248,7.2,13.9,53,0.00,,---,0.00,VWS V13.01,2013-03-24 19:00:00,
2013-03-24 15:10:00,90.7,70.7,29.36,WSW,248,13.2,13.2,52,0.00,,---,0.00,VWS V13.01,2013-03-24 19:10:00,
2013-03-24 15:20:00,90.3,70.9,29.34,WSW,248,20.1,20.1,53,0.00,,---,0.00,VWS V13.01,2013-03-24 19:20:00,
2013-03-24 15:30:00,91.2,71.7,29.33,SW,225,12.1,12.1,53,0.00,,---,0.00,VWS V13.01,2013-03-24 19:30:00,
2013-03-24 15:35:00,91.2,71.7,29.33,SW,225,12.1,12.1,53,0.00,,---,0.00,VWS V13.01,2013-03-24 19:35:00,
2013-03-24 15:45:00,91.6,70.9,29.34,WSW,248,9.2,11.4,51,0.00,,---,0.00,VWS V13.01,2013-03-24 19:45:00,
2013-03-24 15:55:00,91.2,70.6,29.34,WSW,248,14.1,19.5,51,0.00,,---,0.00,VWS V13.01,2013-03-24 19:55:00,
2013-03-24 16:00:00,90.7,70.7,29.33,West,270,7.6,14.1,52,0.00,,---,0.00,VWS V13.01,2013-03-24 20:00:00,
2013-03-24 16:10:00,90.3,70.3,29.33,WSW,248,12.8,15.9,52,0.00,,---,0.00,VWS V13.01,2013-03-24 20:10:00,
2013-03-24 16:15:00,90.3,70.3,29.33,WSW,248,9.6,15.2,52,0.00,,---,0.00,VWS V13.01,2013-03-24 20:15:00,
2013-03-24 16:20:00,90.1,70.2,29.33,WSW,248,15.4,15.4,52,0.00,,---,0.00,VWS V13.01,2013-03-24 20:20:00,
2013-03-24 16:30:00,90.1,70.2,29.34,WSW,248,12.5,13.6,52,0.00,,---,0.00,VWS V13.01,2013-03-24 20:30:00,
2013-03-24 16:40:00,90.0,70.6,29.34,West,270,14.3,14.5,53,0.00,,---,0.00,VWS V13.01,2013-03-24 20:40:00,
2013-03-24 16:50:00,89.2,69.3,29.34,West,270,20.4,20.4,52,0.00,,---,0.00,VWS V13.01,2013-03-24 20:50:00,
2013-03-24 16:55:00,88.9,69.6,29.34,WSW,248,19.9,20.4,53,0.00,,---,0.00,VWS V13.01,2013-03-24 20:55:00,
2013-03-24 17:00:00,88.9,70.1,29.34,WSW,248,10.5,29.3,54,0.00,,---,0.00,VWS V13.01,2013-03-24 21:00:00,
2013-03-24 17:10:00,88.2,70.0,29.33,WSW,248,12.5,16.6,55,0.00,,---,0.00,VWS V13.01,2013-03-24 21:10:00,
2013-03-24 17:15:00,87.8,69.6,29.33,SW,225,15.9,15.9,55,0.00,,---,0.00,VWS V13.01,2013-03-24 21:15:00,
2013-03-24 17:25:00,86.7,69.2,29.33,WSW,248,8.3,13.2,56,0.00,,---,0.00,VWS V13.01,2013-03-24 21:25:00,
2013-03-24 17:35:00,87.4,68.8,29.33,WSW,248,7.4,8.7,54,0.00,,---,0.00,VWS V13.01,2013-03-24 21:35:00,
2013-03-24 17:40:00,87.4,68.8,29.33,West,270,10.5,10.5,54,0.00,,---,0.00,VWS V13.01,2013-03-24 21:40:00,
2013-03-24 17:50:00,86.5,68.5,29.33,WSW,248,13.9,21.0,55,0.00,,---,0.00,VWS V13.01,2013-03-24 21:50:00,
2013-03-24 18:00:00,86.2,68.1,29.32,WSW,248,10.3,13.4,55,0.00,,---,0.00,VWS V13.01,2013-03-24 22:00:00,
2013-03-24 18:10:00,86.5,68.5,29.34,WSW,248,17.7,21.3,55,0.00,,---,0.00,VWS V13.01,2013-03-24 22:10:00,
2013-03-24 18:15:00,85.8,68.3,29.34,WSW,248,10.1,17.7,56,0.00,,---,0.00,VWS V13.01,2013-03-24 22:15:00,
2013-03-24 18:25:00,85.8,68.8,29.33,WSW,248,8.3,8.3,57,0.00,,---,0.00,VWS V13.01,2013-03-24 22:25:00,
2013-03-24 18:35:00,85.1,68.7,29.34,West,270,9.4,9.4,58,0.00,,---,0.00,VWS V13.01,2013-03-24 22:35:00,
2013-03-24 18:45:00,84.2,68.8,29.34,SW,225,10.1,10.3,60,0.00,,---,0.00,VWS V13.01,2013-03-24 22:45:00,
2013-03-24 18:55:00,83.8,69.0,29.34,WSW,248,16.1,16.1,61,0.00,,---,0.00,VWS V13.01,2013-03-24 22:55:00,
2013-03-24 19:00:00,83.5,68.6,29.35,WSW,248,12.3,16.1,61,0.00,,---,0.00,VWS V13.01,2013-03-24 23:00:00,
2013-03-24 19:10:00,82.6,68.2,29.37,West,270,17.0,17.5,62,0.00,,---,0.00,VWS V13.01,2013-03-24 23:10:00,
2013-03-24 19:20:00,82.2,68.4,29.37,WSW,248,12.1,12.1,63,0.00,,---,0.00,VWS V13.01,2013-03-24 23:20:00,
2013-03-24 19:30:00,81.7,68.3,29.37,West,270,5.1,13.6,64,0.00,,---,0.00,VWS V13.01,2013-03-24 23:30:00,
2013-03-24 19:40:00,81.5,68.6,29.37,WNW,292,5.4,6.7,65,0.00,,---,0.00,VWS V13.01,2013-03-24 23:40:00,
2013-03-24 19:45:00,81.1,68.3,29.37,West,270,7.6,8.5,65,0.00,,---,0.00,VWS V13.01,2013-03-24 23:45:00,
2013-03-24 19:55:00,80.8,68.4,29.38,WSW,248,7.6,7.6,66,0.00,,---,0.00,VWS V13.01,2013-03-24 23:55:00,
2013-03-24 20:05:00,80.8,68.4,29.38,WSW,248,7.6,7.6,66,0.00,,---,0.00,VWS V13.01,2013-03-25 00:05:00,
2013-03-24 20:15:00,80.4,68.0,29.39,West,270,4.5,4.5,66,0.00,,---,0.00,VWS V13.01,2013-03-25 00:15:00,
2013-03-24 20:25:00,80.4,68.5,29.39,WNW,292,5.6,5.6,67,0.00,,---,0.00,VWS V13.01,2013-03-25 00:25:00,
2013-03-24 20:30:00,-22.0,-29.5,29.40,WNW,292,5.6,5.6,67,0.00,,---,0.00,VWS V13.01,2013-03-25 00:30:00,
2013-03-24 20:40:00,80.4,68.5,29.39,WSW,248,2.7,5.8,67,0.00,,---,0.00,VWS V13.01,2013-03-25 00:40:00,
2013-03-24 20:50:00,80.2,68.3,29.40,West,270,1.6,2.7,67,0.00,,---,0.00,VWS V13.01,2013-03-25 00:50:00,
2013-03-24 20:55:00,80.2,68.3,29.40,West,270,0.4,1.6,67,0.00,,---,0.00,VWS V13.01,2013-03-25 00:55:00,
2013-03-24 21:00:00,80.1,68.1,29.40,West,270,4.3,4.3,67,0.00,,---,0.00,VWS V13.01,2013-03-25 01:00:00,
2013-03-24 21:10:00,79.9,67.9,29.41,WNW,292,4.7,4.7,67,0.00,,---,0.00,VWS V13.01,2013-03-25 01:10:00,
2013-03-24 21:20:00,79.7,66.9,29.41,NNW,338,9.0,9.0,65,0.00,,---,0.00,VWS V13.01,2013-03-25 01:20:00,
2013-03-24 21:25:00,79.5,66.7,29.42,NNW,338,7.2,9.0,65,0.00,,---,0.00,VWS V13.01,2013-03-25 01:25:00,
2013-03-24 21:30:00,79.5,66.7,29.42,NNW,338,0.4,7.2,65,0.00,,---,0.00,VWS V13.01,2013-03-25 01:30:00,
2013-03-24 21:40:00,77.5,65.7,29.42,WNW,292,2.7,2.7,67,0.00,,---,0.00,VWS V13.01,2013-03-25 01:40:00,
2013-03-24 21:45:00,77.4,65.6,29.41,NNW,338,0.0,2.7,67,0.00,,---,0.00,VWS V13.01,2013-03-25 01:45:00,
2013-03-24 21:55:00,76.8,65.5,29.42,NNE,22,4.3,4.3,68,0.00,,---,0.00,VWS V13.01,2013-03-25 01:55:00,
2013-03-24 22:00:00,76.6,65.3,29.42,NNW,338,0.2,0.2,68,0.00,,---,0.00,VWS V13.01,2013-03-25 02:00:00,
2013-03-24 22:05:00,76.6,65.3,29.42,NNW,338,0.2,0.2,68,0.00,,---,0.00,VWS V13.01,2013-03-25 02:05:00,
2013-03-24 22:15:00,76.3,65.4,29.42,NNE,22,0.0,12.1,69,0.00,,---,0.00,VWS V13.01,2013-03-25 02:15:00,
2013-03-24 22:20:00,76.5,66.0,29.42,NNE,22,0.0,0.0,70,0.00,,---,0.00,VWS V13.01,2013-03-25 02:20:00,
2013-03-24 22:30:00,76.6,66.1,29.41,NNE,22,17.7,17.7,70,0.00,,---,0.00,VWS V13.01,2013-03-25 02:30:00,
2013-03-24 22:35:00,76.8,66.3,29.42,NNE,22,0.0,17.7,70,0.00,,---,0.00,VWS V13.01,2013-03-25 02:35:00,
2013-03-24 22:45:00,76.6,66.5,29.42,NNE,22,0.0,17.9,71,0.00,,---,0.00,VWS V13.01,2013-03-25 02:45:00,
2013-03-24 22:50:00,76.6,66.5,29.42,NNE,22,0.0,17.9,71,0.00,,---,0.00,VWS V13.01,2013-03-25 02:50:00,
2013-03-24 23:00:00,76.3,66.6,29.42,WNW,292,18.6,18.6,72,0.00,,---,0.00,VWS V13.01,2013-03-25 03:00:00,
2013-03-24 23:10:00,76.1,66.8,29.41,WNW,292,15.0,22.4,73,0.00,,---,0.00,VWS V13.01,2013-03-25 03:10:00,
2013-03-24 23:20:00,75.9,66.7,29.41,WNW,292,21.0,21.0,73,0.00,,---,0.00,VWS V13.01,2013-03-25 03:20:00,
2013-03-24 23:30:00,75.9,67.0,29.41,WNW,292,9.6,21.0,74,0.02,,---,0.02,VWS V13.01,2013-03-25 03:30:00,
2013-03-24 23:35:00,75.9,67.0,29.41,WNW,292,0.0,21.5,74,0.02,,---,0.02,VWS V13.01,2013-03-25 03:35:00,
2013-03-24 23:45:00,75.7,66.9,29.41,WNW,292,13.4,18.6,74,0.02,,---,0.02,VWS V13.01,2013-03-25 03:45:00,
2013-03-24 23:55:00,75.9,67.4,29.41,SW,225,15.2,20.6,75,0.02,,---,0.02,VWS V13.01,2013-03-25 03:55:00,